Time;durP1;ratioP1;P1;durP2;ratioP2;P2;SDS_P1;SDS_P2;PMS_P1;PMS_P2;Temp;Humidity;BMP_temperature;BMP_pressure;BME280_temperature;BME280_humidity;BME280_pressure;Samples;Min_cycle;Max_cycle;Signal;HPM_P1;HPM_P2
2022/10/13 00:00:33;;;;;;;2.28;1.52;;;;;;;12.91;77.26;101274.75;5005425;28;20042;-71
2022/10/13 00:03:02;;;;;;;6.15;1.98;;;;;;;12.88;77.22;101278.16;5003368;28;20409;-71
2022/10/13 00:05:29;;;;;;;1.70;1.30;;;;;;;12.96;77.23;101269.06;5001473;28;20060;-71
2022/10/13 00:07:55;;;;;;;1.98;1.00;;;;;;;12.97;77.38;101270.66;5001457;28;20457;-71
2022/10/13 00:10:21;;;;;;;1.83;1.13;;;;;;;12.91;76.74;101269.34;4999599;28;20443;-71
2022/10/13 00:12:49;;;;;;;6.00;1.52;;;;;;;12.85;77.32;101268.06;5002877;28;20080;-71
2022/10/13 00:15:15;;;;;;;2.08;1.20;;;;;;;13.01;76.77;101264.16;5005175;28;20042;-71
2022/10/13 00:17:40;;;;;;;1.67;1.30;;;;;;;12.98;76.39;101266.78;4998897;28;20117;-71
2022/10/13 00:20:08;;;;;;;1.30;1.20;;;;;;;12.96;76.01;101260.97;5009205;28;20030;-71
2022/10/13 00:22:33;;;;;;;1.75;1.20;;;;;;;12.97;76.85;101266.00;4995844;28;20414;-71
2022/10/13 00:24:59;;;;;;;2.53;1.50;;;;;;;12.88;77.35;101265.44;5007075;28;20026;-71
2022/10/13 00:27:24;;;;;;;1.63;1.38;;;;;;;12.93;76.56;101265.16;5003092;28;20478;-71
2022/10/13 00:29:50;;;;;;;1.67;1.08;;;;;;;12.69;78.23;101271.63;5008487;28;20048;-71
2022/10/13 00:32:15;;;;;;;4.18;1.50;;;;;;;12.72;78.01;101263.94;5004773;28;20034;-71
2022/10/13 00:34:41;;;;;;;5.50;1.90;;;;;;;12.65;78.48;101264.56;5001673;28;20517;-71
2022/10/13 00:37:07;;;;;;;2.92;1.17;;;;;;;12.61;78.67;101253.69;4985867;28;20127;-71
2022/10/13 00:39:32;;;;;;;2.70;1.50;;;;;;;12.35;79.52;101263.50;4998260;28;20053;-71
2022/10/13 00:41:58;;;;;;;2.78;1.70;;;;;;;12.43;79.57;101246.31;5009436;28;20033;-71
2022/10/13 00:45:02;;;;;;;3.33;1.38;;;;;;;12.48;79.58;101243.34;5009468;28;20088;-71
2022/10/13 00:47:39;;;;;;;3.83;1.88;;;;;;;12.52;80.15;101255.78;5007515;28;20038;-71
2022/10/13 00:50:09;;;;;;;3.67;1.45;;;;;;;12.38;79.33;101252.78;5006270;28;20030;-71
2022/10/13 00:52:38;;;;;;;5.78;2.00;;;;;;;12.50;78.90;101257.28;5007883;28;20026;-71
2022/10/13 00:55:05;;;;;;;3.08;1.52;;;;;;;12.53;78.48;101251.94;4994260;28;20029;-71
2022/10/13 00:57:31;;;;;;;3.92;1.40;;;;;;;12.34;79.84;101248.41;4988994;28;20068;-71
2022/10/13 00:59:58;;;;;;;1.52;1.25;;;;;;;12.45;79.14;101244.03;5000962;28;20034;-71
2022/10/13 01:02:31;;;;;;;3.22;1.35;;;;;;;12.42;80.20;101240.13;5003373;28;20037;-71
2022/10/13 01:04:57;;;;;;;4.40;1.20;;;;;;;12.23;80.93;101244.69;4993554;28;20487;-71
2022/10/13 01:07:23;;;;;;;2.53;1.55;;;;;;;12.47;79.31;101236.34;5000025;28;20034;-71
2022/10/13 01:09:49;;;;;;;3.70;1.58;;;;;;;12.36;79.98;101236.13;5002218;28;20037;-71
2022/10/13 01:12:39;;;;;;;8.65;1.58;;;;;;;12.62;79.25;101232.81;4996962;28;20037;-71
2022/10/13 01:15:09;;;;;;;2.83;1.50;;;;;;;12.42;79.09;101240.13;5001574;28;20033;-71
2022/10/13 01:18:04;;;;;;;5.10;1.58;;;;;;;12.49;78.90;101236.78;4999092;28;20065;-71
2022/10/13 01:21:04;;;;;;;2.17;1.55;;;;;;;12.36;80.17;101235.34;5000414;28;20053;-71
2022/10/13 01:23:48;;;;;;;2.10;1.30;;;;;;;12.39;79.61;101230.03;4997722;28;20069;-71
2022/10/13 01:26:40;;;;;;;2.85;1.48;;;;;;;12.35;80.00;101231.84;4993249;28;20072;-71
2022/10/13 01:29:28;;;;;;;1.90;1.42;;;;;;;12.32;79.72;101219.06;4999367;28;20048;-70
2022/10/13 01:31:59;;;;;;;1.67;1.40;;;;;;;12.23;80.37;101221.16;5020366;28;20061;-70
2022/10/13 01:34:43;;;;;;;6.97;2.05;;;;;;;12.19;81.00;101211.44;5005055;28;20084;-70
2022/10/13 01:37:08;;;;;;;4.32;1.90;;;;;;;12.18;80.56;101218.75;4996951;28;20030;-70
2022/10/13 01:39:41;;;;;;;2.90;1.80;;;;;;;12.30;80.63;101212.44;4994704;28;20355;-70
2022/10/13 01:42:15;;;;;;;5.40;1.85;;;;;;;12.32;80.85;101219.06;4989536;28;20027;-70
2022/10/13 01:44:50;;;;;;;4.75;1.80;;;;;;;12.27;80.86;101213.91;4993389;28;20785;-70
2022/10/13 01:47:17;;;;;;;3.65;1.88;;;;;;;12.22;81.03;101208.00;4982207;28;20038;-70
2022/10/13 01:49:45;;;;;;;2.55;1.30;;;;;;;12.06;80.83;101205.34;4994190;28;20088;-70
2022/10/13 01:52:14;;;;;;;2.35;1.40;;;;;;;11.94;81.89;101216.25;5003771;28;20088;-70
2022/10/13 01:54:39;;;;;;;3.05;1.92;;;;;;;11.98;82.26;101200.91;5001820;28;20030;-70
2022/10/13 01:57:35;;;;;;;1.95;1.40;;;;;;;11.96;82.28;101210.50;5012606;23;20378;-64
2022/10/13 02:00:05;;;;;;;5.50;1.90;;;;;;;12.01;82.21;101202.91;4986003;28;20042;-64
2022/10/13 02:02:59;;;;;;;3.72;1.45;;;;;;;11.77;82.76;101208.50;4994888;28;20030;-64
2022/10/13 02:05:41;;;;;;;3.83;1.67;;;;;;;11.62;83.72;101198.47;4992413;28;20058;-64
2022/10/13 02:08:10;;;;;;;5.28;1.95;;;;;;;11.62;83.92;101201.16;5011454;28;20494;-64
2022/10/13 02:10:55;;;;;;;2.75;1.52;;;;;;;11.72;83.58;101187.97;5011504;28;20049;-64
2022/10/13 02:13:25;;;;;;;1.60;1.35;;;;;;;11.89;83.24;101194.91;5012933;28;20037;-64
2022/10/13 02:15:55;;;;;;;4.30;1.63;;;;;;;12.02;81.93;101188.28;5013128;28;20112;-64
2022/10/13 02:18:26;;;;;;;1.95;1.42;;;;;;;11.55;84.24;101184.81;5014153;28;20105;-64
2022/10/13 02:20:53;;;;;;;2.92;1.52;;;;;;;11.56;84.04;101183.66;5005227;28;20046;-64
2022/10/13 02:23:18;;;;;;;2.72;1.65;;;;;;;11.49;84.28;101186.19;5009973;28;20030;-64
2022/10/13 02:25:46;;;;;;;4.65;1.77;;;;;;;11.60;84.09;101184.53;5028119;28;20514;-64
2022/10/13 02:28:13;;;;;;;1.70;1.40;;;;;;;11.36;85.57;101182.00;5007505;28;20056;-64
2022/10/13 02:30:42;;;;;;;2.58;1.80;;;;;;;11.42;85.26;101172.53;5011927;28;20038;-64
2022/10/13 02:33:08;;;;;;;1.77;1.38;;;;;;;11.49;84.92;101175.41;5009499;28;20061;-64
2022/10/13 02:35:36;;;;;;;3.17;1.58;;;;;;;11.38;85.56;101169.72;5013603;28;20061;-64
2022/10/13 02:38:01;;;;;;;5.35;2.17;;;;;;;11.42;85.03;101167.16;5013390;28;20498;-64
2022/10/13 02:40:27;;;;;;;5.18;2.05;;;;;;;11.49;85.56;101170.00;5021045;28;20030;-64
2022/10/13 02:42:53;;;;;;;2.15;1.02;;;;;;;11.58;84.50;101168.72;5011098;28;20082;-64
2022/10/13 02:45:19;;;;;;;3.80;1.67;;;;;;;11.37;85.63;101164.69;5013256;28;20038;-64
2022/10/13 02:47:45;;;;;;;4.93;1.60;;;;;;;11.37;85.79;101159.31;5012967;28;20123;-64
2022/10/13 02:50:11;;;;;;;4.20;1.95;;;;;;;11.44;84.83;101168.34;5009322;28;20129;-64
2022/10/13 02:52:37;;;;;;;3.35;1.50;;;;;;;11.38;86.05;101168.97;5013655;28;20034;-64
2022/10/13 02:55:03;;;;;;;7.68;1.63;;;;;;;11.31;86.13;101166.88;5012878;28;20112;-64
2022/10/13 02:57:29;;;;;;;6.55;1.55;;;;;;;11.28;86.30;101159.47;5006114;28;20500;-64
2022/10/13 02:59:56;;;;;;;3.78;1.52;;;;;;;11.39;85.55;101171.31;5008617;28;20045;-64
2022/10/13 03:02:25;;;;;;;5.40;1.90;;;;;;;11.26;86.62;101158.25;4998573;28;20521;-64
2022/10/13 03:04:51;;;;;;;2.90;1.80;;;;;;;11.32;86.41;101154.19;5022683;28;20034;-64
2022/10/13 03:07:16;;;;;;;2.30;1.67;;;;;;;11.32;86.69;101160.34;5010248;28;20038;-64
2022/10/13 03:09:41;;;;;;;1.77;1.25;;;;;;;11.36;86.14;101157.75;5027027;28;20038;-64
2022/10/13 03:12:07;;;;;;;3.72;1.77;;;;;;;11.23;86.09;101154.34;5012301;28;20041;-64
2022/10/13 03:14:34;;;;;;;2.05;1.48;;;;;;;11.31;86.63;101156.09;5012044;28;20033;-64
2022/10/13 03:16:59;;;;;;;3.20;1.83;;;;;;;11.36;86.47;101155.06;5012775;28;20034;-64
2022/10/13 03:19:25;;;;;;;7.20;2.00;;;;;;;11.32;86.11;101154.19;5012064;28;20038;-64
2022/10/13 03:21:50;;;;;;;2.45;1.63;;;;;;;11.46;85.76;101157.22;5024097;28;20122;-64
2022/10/13 03:24:17;;;;;;;4.63;2.20;;;;;;;11.30;86.54;101151.03;5011981;28;20490;-64
2022/10/13 03:26:42;;;;;;;2.63;1.70;;;;;;;11.16;87.04;101145.28;5012671;28;20042;-64
2022/10/13 03:29:16;;;;;;;4.85;2.15;;;;;;;11.30;86.92;101154.53;5011031;28;20021;-64
2022/10/13 03:31:43;;;;;;;6.28;2.08;;;;;;;11.28;87.03;101148.69;5023208;28;20099;-64
2022/10/13 03:34:09;;;;;;;4.95;2.30;;;;;;;11.15;87.52;101151.81;5008968;28;20453;-64
2022/10/13 03:36:35;;;;;;;7.63;1.60;;;;;;;11.14;87.62;101147.53;5002042;28;20125;-64
2022/10/13 03:39:00;;;;;;;1.88;1.70;;;;;;;11.08;87.74;101143.53;5005153;28;20160;-64
2022/10/13 03:41:26;;;;;;;2.75;1.83;;;;;;;11.07;88.25;101148.13;4996892;28;20398;-64
2022/10/13 03:43:53;;;;;;;4.40;2.25;;;;;;;11.04;88.35;101151.53;4994791;28;20034;-64
2022/10/13 03:46:18;;;;;;;2.88;1.58;;;;;;;11.03;88.91;101144.59;5011942;28;20026;-64
2022/10/13 03:48:46;;;;;;;4.32;1.80;;;;;;;10.97;88.63;101148.66;5012204;28;20473;-64
2022/10/13 03:51:17;;;;;;;10.43;1.92;;;;;;;10.71;90.08;101140.22;5009030;28;20040;-64
2022/10/13 03:53:50;;;;;;;3.83;1.98;;;;;;;10.82;90.19;101144.78;5010578;28;20061;-64
2022/10/13 03:56:18;;;;;;;3.30;2.00;;;;;;;10.89;90.37;101139.59;5010980;28;20041;-64
2022/10/13 03:58:53;;;;;;;4.88;2.08;;;;;;;10.87;89.55;101139.16;4995589;28;20025;-64
2022/10/13 04:01:20;;;;;;;4.35;1.88;;;;;;;11.02;89.73;101139.50;5024494;28;20084;-66
2022/10/13 04:06:25;;;;;;;2.60;1.80;;;;;;;11.14;88.96;101142.94;4973701;23;20105;-70
2022/10/13 04:08:50;;;;;;;3.67;2.38;;;;;;;11.12;88.69;101137.09;4976608;28;20533;-70
2022/10/13 04:11:17;;;;;;;4.30;2.92;;;;;;;11.21;88.26;101136.94;4990971;28;20050;-71
2022/10/13 04:13:49;;;;;;;2.63;1.98;;;;;;;11.12;88.86;101133.63;4982106;28;20394;-70
2022/10/13 04:16:18;;;;;;;11.43;2.50;;;;;;;11.18;88.54;101135.72;4989202;28;20042;-70
2022/10/13 04:18:44;;;;;;;3.28;1.98;;;;;;;11.06;89.81;101129.63;4972376;28;20085;-69
2022/10/13 04:21:13;;;;;;;4.15;2.22;;;;;;;11.03;89.79;101133.00;5007162;23;20387;-65
2022/10/13 04:23:39;;;;;;;5.90;3.08;;;;;;;11.08;89.79;101127.34;4990681;28;20125;-65
2022/10/13 04:26:05;;;;;;;5.40;2.65;;;;;;;11.12;90.18;101133.63;4990757;28;20120;-65
2022/10/13 04:28:36;;;;;;;4.25;2.50;;;;;;;11.22;89.85;101131.22;4985090;28;20041;-65
2022/10/13 04:31:02;;;;;;;2.85;2.10;;;;;;;11.32;89.34;101124.53;4976592;28;20057;-65
2022/10/13 04:33:29;;;;;;;8.27;2.20;;;;;;;11.31;89.40;101128.31;4983271;28;20043;-65
2022/10/13 04:35:55;;;;;;;5.20;2.20;;;;;;;11.43;88.94;101123.66;4977166;28;20038;-65
2022/10/13 04:38:21;;;;;;;7.55;1.92;;;;;;;11.40;89.07;101128.97;4976521;28;20104;-65
2022/10/13 04:40:46;;;;;;;4.55;2.15;;;;;;;11.54;87.86;101123.88;4976096;28;20039;-64
2022/10/13 04:43:12;;;;;;;5.53;2.50;;;;;;;11.27;88.75;101127.44;4984398;28;20392;-65
2022/10/13 04:45:37;;;;;;;5.22;2.22;;;;;;;11.36;89.46;101131.53;4977602;28;20050;-64
2022/10/13 04:48:03;;;;;;;4.90;2.30;;;;;;;11.48;88.80;101130.69;4978196;28;20398;-65
2022/10/13 04:50:28;;;;;;;3.55;2.03;;;;;;;11.43;88.57;101122.84;4981070;28;20046;-65
2022/10/13 04:52:58;;;;;;;4.40;2.33;;;;;;;11.34;89.03;101124.94;4978900;28;20026;-65
2022/10/13 04:55:23;;;;;;;6.72;2.33;;;;;;;11.30;89.59;101126.78;4971961;28;20054;-65
2022/10/13 04:57:49;;;;;;;8.98;2.28;;;;;;;11.29;89.35;101120.59;4980389;28;20113;-65
2022/10/13 05:00:14;;;;;;;6.05;2.20;;;;;;;11.20;89.65;101124.59;4984204;28;20128;-65
2022/10/13 05:02:40;;;;;;;12.20;2.83;;;;;;;11.29;90.07;101117.91;4980940;28;20042;-65
2022/10/13 05:05:06;;;;;;;3.60;2.13;;;;;;;11.19;89.67;101123.81;4979419;28;20042;-65
2022/10/13 05:07:31;;;;;;;5.10;2.28;;;;;;;11.29;89.53;101125.19;4971469;28;20043;-65
2022/10/13 05:09:57;;;;;;;2.90;1.77;;;;;;;11.23;89.78;101116.59;4975015;28;20034;-65
2022/10/13 05:12:22;;;;;;;5.40;2.55;;;;;;;11.28;90.08;101119.03;4973270;28;20517;-65
2022/10/13 05:14:48;;;;;;;8.18;2.53;;;;;;;11.29;90.04;101109.03;4983298;28;20030;-65
2022/10/13 05:17:14;;;;;;;5.40;2.05;;;;;;;11.44;88.63;101110.94;4977242;28;20050;-65
2022/10/13 05:19:40;;;;;;;3.75;2.55;;;;;;;11.33;89.72;101116.06;4976923;28;20022;-65
2022/10/13 05:22:05;;;;;;;4.07;2.10;;;;;;;11.35;88.78;101113.81;4973412;28;20075;-65
2022/10/13 05:24:35;;;;;;;9.60;2.00;;;;;;;11.31;89.20;101112.94;4972525;28;20030;-66
2022/10/13 05:27:11;;;;;;;6.63;2.35;;;;;;;11.26;89.95;101107.81;4976981;28;20069;-66
2022/10/13 05:29:37;;;;;;;4.22;2.25;;;;;;;11.14;90.14;101104.41;4978440;28;20042;-65
2022/10/13 05:32:03;;;;;;;4.88;2.50;;;;;;;11.13;90.52;101102.84;4989069;28;20042;-65
2022/10/13 05:34:28;;;;;;;3.47;2.05;;;;;;;11.13;89.81;101102.84;4981735;28;20190;-65
2022/10/13 05:36:54;;;;;;;3.50;2.60;;;;;;;10.93;91.34;101093.09;4987178;28;20074;-65
2022/10/13 05:39:19;;;;;;;4.40;2.47;;;;;;;10.95;91.53;101098.91;4987405;28;20110;-65
2022/10/13 05:41:45;;;;;;;6.25;2.47;;;;;;;10.93;91.34;101103.88;4974779;28;20576;-65
2022/10/13 05:44:19;;;;;;;4.72;3.20;;;;;;;11.15;91.65;101097.91;4978053;28;20069;-65
2022/10/13 05:46:55;;;;;;;3.33;2.22;;;;;;;11.10;91.56;101092.75;4980402;28;20040;-65
2022/10/13 05:49:20;;;;;;;4.90;2.55;;;;;;;11.08;92.13;101090.41;4981360;28;20132;-65
2022/10/13 05:51:48;;;;;;;7.68;2.38;;;;;;;11.08;91.78;101089.63;4977969;28;20038;-65
2022/10/13 05:54:35;;;;;;;3.85;2.58;;;;;;;11.15;92.18;101076.34;4971061;28;20042;-65
2022/10/13 05:57:07;;;;;;;3.08;2.45;;;;;;;11.31;91.68;101079.78;4968706;28;20428;-66
2022/10/13 05:59:36;;;;;;;8.38;3.03;;;;;;;11.24;92.18;101082.34;4984697;28;20129;-65
2022/10/13 06:02:03;;;;;;;5.55;2.58;;;;;;;11.18;92.30;101084.50;4982091;28;20039;-65
2022/10/13 06:04:37;;;;;;;4.68;2.53;;;;;;;11.24;92.29;101072.34;4978829;28;20031;-65
2022/10/13 06:07:03;;;;;;;3.97;2.17;;;;;;;11.26;91.88;101063.91;4979882;28;20034;-65
2022/10/13 06:09:39;;;;;;;4.05;2.40;;;;;;;11.27;91.88;101062.75;4981605;28;20038;-65
2022/10/13 06:12:05;;;;;;;4.55;2.60;;;;;;;11.28;92.53;101058.94;4971849;28;20717;-65
2022/10/13 06:14:31;;;;;;;4.10;2.30;;;;;;;11.27;92.75;101065.44;4975528;28;20026;-65
2022/10/13 06:16:56;;;;;;;3.80;2.90;;;;;;;11.33;92.09;101050.56;4983229;28;20383;-66
2022/10/13 06:19:22;;;;;;;4.10;2.17;;;;;;;11.24;92.91;101053.47;4982583;28;20061;-65
2022/10/13 06:21:47;;;;;;;5.60;2.80;;;;;;;11.30;92.53;101027.03;4971708;28;20089;-65
2022/10/13 06:24:13;;;;;;;6.07;2.17;;;;;;;11.30;92.30;101025.13;4969733;28;20039;-65
2022/10/13 06:26:39;;;;;;;4.72;2.63;;;;;;;11.21;93.08;101029.09;4978096;28;20867;-66
2022/10/13 06:29:04;;;;;;;6.90;2.38;;;;;;;11.36;92.52;101033.72;4975670;28;20030;-66
2022/10/13 06:31:29;;;;;;;10.00;2.88;;;;;;;11.46;92.40;101030.44;4975487;28;20502;-65
2022/10/13 06:33:55;;;;;;;4.43;2.05;;;;;;;11.47;92.88;101034.72;4981511;28;20034;-65
2022/10/13 06:36:20;;;;;;;7.20;3.58;;;;;;;11.59;92.35;101045.41;4981828;28;20066;-65
2022/10/13 06:38:46;;;;;;;5.53;2.85;;;;;;;11.55;92.56;101049.94;4972538;28;20042;-65
2022/10/13 06:41:13;;;;;;;3.47;2.42;;;;;;;11.63;91.91;101046.28;4973791;28;20110;-66
2022/10/13 06:43:39;;;;;;;9.70;2.53;;;;;;;11.56;91.85;101049.59;4972939;28;20058;-65
2022/10/13 06:46:06;;;;;;;5.50;3.00;;;;;;;11.41;92.54;101050.41;4971619;28;20030;-65
2022/10/13 06:48:31;;;;;;;6.93;3.03;;;;;;;11.42;93.28;101059.28;4990714;28;20384;-65
2022/10/13 06:51:04;;;;;;;4.35;2.63;;;;;;;11.51;93.31;101063.34;4980438;28;20038;-65
2022/10/13 06:53:30;;;;;;;5.50;2.72;;;;;;;11.61;93.96;101064.72;4980438;28;20042;-65
2022/10/13 06:55:57;;;;;;;3.72;2.40;;;;;;;11.75;92.96;101065.06;4982746;28;20041;-65
2022/10/13 06:58:22;;;;;;;4.97;2.72;;;;;;;11.85;92.47;101074.50;4978645;28;20079;-65
2022/10/13 07:00:48;;;;;;;4.00;2.28;;;;;;;11.87;92.66;101073.03;4979354;28;20065;-65
2022/10/13 07:03:14;;;;;;;7.35;2.92;;;;;;;11.92;92.42;101070.09;4978853;28;20038;-65
2022/10/13 07:05:39;;;;;;;7.70;3.60;;;;;;;11.86;92.09;101070.69;4976683;28;20108;-65
2022/10/13 07:08:05;;;;;;;3.05;2.35;;;;;;;11.92;91.71;101053.09;4988139;28;20793;-66
2022/10/13 07:10:30;;;;;;;7.68;3.15;;;;;;;11.96;91.64;101059.34;4974773;28;20039;-65
2022/10/13 07:12:56;;;;;;;9.15;2.55;;;;;;;11.87;92.74;101050.66;4988180;28;20692;-65
2022/10/13 07:15:23;;;;;;;4.82;2.75;;;;;;;11.78;92.77;101058.97;4979843;28;20050;-65
2022/10/13 07:17:52;;;;;;;4.10;2.72;;;;;;;11.98;93.04;101055.16;4982902;28;20109;-65
2022/10/13 07:20:18;;;;;;;6.78;4.18;;;;;;;11.96;92.32;101060.16;4977791;28;20097;-66
2022/10/13 07:22:44;;;;;;;7.07;3.00;;;;;;;11.90;93.46;101066.16;4981938;28;20026;-65
2022/10/13 07:25:10;;;;;;;9.32;3.13;;;;;;;12.10;92.79;101060.41;4974180;28;20038;-65
2022/10/13 07:27:37;;;;;;;7.10;2.83;;;;;;;12.15;92.53;101067.47;4974712;28;20518;-66
2022/10/13 07:30:03;;;;;;;7.20;3.28;;;;;;;12.14;92.60;101065.88;4983091;28;20031;-65
2022/10/13 07:32:31;;;;;;;5.15;3.25;;;;;;;12.26;92.17;101073.84;4974614;28;20053;-65
2022/10/13 07:34:56;;;;;;;6.15;3.03;;;;;;;12.20;92.60;101067.16;4971573;28;20043;-65
2022/10/13 07:37:22;;;;;;;5.10;2.92;;;;;;;12.24;92.55;101058.00;4979001;28;20038;-65
2022/10/13 07:39:47;;;;;;;5.35;2.67;;;;;;;12.31;92.53;101071.66;4975907;28;20038;-66
2022/10/13 07:42:14;;;;;;;4.80;2.63;;;;;;;12.27;92.52;101061.94;4979040;28;20033;-65
2022/10/13 07:44:39;;;;;;;6.90;3.28;;;;;;;12.47;91.86;101053.44;4983021;28;20474;-65
2022/10/13 07:47:04;;;;;;;11.18;3.65;;;;;;;12.54;91.63;101050.88;4981208;28;20035;-65
2022/10/13 07:49:30;;;;;;;5.90;2.95;;;;;;;12.62;90.93;101032.88;4982051;28;20074;-66
2022/10/13 07:51:57;;;;;;;5.95;3.25;;;;;;;12.58;90.92;101030.09;4987725;28;20113;-66
2022/10/13 07:54:23;;;;;;;5.00;3.17;;;;;;;12.64;91.53;101027.88;4975801;28;20539;-66
2022/10/13 07:56:52;;;;;;;9.60;3.30;;;;;;;12.60;90.29;101037.88;4981067;28;20041;-65
2022/10/13 07:59:17;;;;;;;9.23;3.50;;;;;;;12.65;90.41;101035.66;4972993;28;20046;-65
2022/10/13 08:01:43;;;;;;;11.80;3.33;;;;;;;12.43;91.71;101035.59;4978170;28;20038;-66
2022/10/13 08:04:08;;;;;;;6.55;3.30;;;;;;;12.52;91.44;101044.28;4975525;28;20039;-65
2022/10/13 08:06:34;;;;;;;4.43;2.45;;;;;;;12.58;91.79;101035.50;4976430;28;20039;-65
2022/10/13 08:09:02;;;;;;;7.90;4.20;;;;;;;12.64;91.54;101047.59;4978934;28;20035;-65
2022/10/13 08:11:27;;;;;;;5.68;3.72;;;;;;;12.76;91.06;101032.34;4977901;28;20089;-65
2022/10/13 08:13:54;;;;;;;8.05;4.00;;;;;;;12.87;91.74;101052.25;4983461;28;20022;-65
2022/10/13 08:16:20;;;;;;;8.23;4.05;;;;;;;12.75;91.10;101037.00;4980151;28;20109;-66
2022/10/13 08:18:47;;;;;;;8.48;3.75;;;;;;;12.81;91.63;101046.38;4982126;28;20121;-65
2022/10/13 08:21:16;;;;;;;6.07;3.63;;;;;;;12.91;91.31;101045.75;4980559;28;20447;-65
2022/10/13 08:23:43;;;;;;;6.47;3.35;;;;;;;12.81;91.39;101040.97;4978245;28;20027;-65
2022/10/13 08:26:17;;;;;;;5.90;3.47;;;;;;;13.00;90.60;101042.81;4984573;28;20109;-66
2022/10/13 08:28:42;;;;;;;8.35;3.20;;;;;;;12.94;91.52;101036.13;4974904;28;20061;-65
2022/10/13 08:31:07;;;;;;;7.60;3.83;;;;;;;13.13;91.11;101039.59;4985889;28;20030;-65
2022/10/13 08:33:33;;;;;;;14.18;3.88;;;;;;;13.22;91.32;101032.00;4982795;28;20038;-66
2022/10/13 08:35:59;;;;;;;8.57;3.35;;;;;;;13.29;90.71;101024.00;4980571;28;20120;-66
2022/10/13 08:38:25;;;;;;;10.93;3.58;;;;;;;13.43;89.84;101023.44;4979112;28;20062;-65
2022/10/13 08:40:52;;;;;;;10.13;3.22;;;;;;;13.46;90.41;101020.00;4981754;28;20045;-66
2022/10/13 08:43:21;;;;;;;9.48;3.95;;;;;;;13.59;90.12;101021.34;4971552;28;20037;-65
2022/10/13 08:45:51;;;;;;;10.13;4.45;;;;;;;13.61;89.87;101024.47;4980837;28;20571;-65
2022/10/13 08:48:18;;;;;;;10.90;4.50;;;;;;;13.61;89.90;101013.63;4983156;28;20031;-66
2022/10/13 08:50:48;;;;;;;7.95;3.97;;;;;;;13.65;89.85;101024.50;4973475;28;20046;-65
2022/10/13 08:53:36;;;;;;;10.13;4.00;;;;;;;13.74;89.74;101020.41;4973594;28;20054;-65
2022/10/13 08:56:09;;;;;;;8.80;3.67;;;;;;;13.74;89.85;101022.31;4975217;28;20046;-66
2022/10/13 08:58:39;;;;;;;9.23;4.20;;;;;;;13.84;89.42;101027.88;4980668;28;20491;-66
2022/10/13 09:01:08;;;;;;;9.77;3.95;;;;;;;13.77;89.77;101030.50;4974899;28;20038;-66
2022/10/13 09:03:48;;;;;;;9.27;3.80;;;;;;;13.87;89.38;101021.72;4971074;28;20038;-66
2022/10/13 09:06:31;;;;;;;9.40;4.00;;;;;;;13.96;89.61;101022.22;4970806;28;20038;-65
2022/10/13 09:09:08;;;;;;;8.05;4.25;;;;;;;13.97;89.40;101018.38;4977261;28;20073;-66
2022/10/13 09:11:37;;;;;;;13.85;4.88;;;;;;;13.91;90.41;101022.56;4978761;28;20050;-66
2022/10/13 09:14:11;;;;;;;11.50;4.15;;;;;;;13.84;90.38;101022.44;4971860;28;20044;-65
2022/10/13 09:16:43;;;;;;;9.35;3.90;;;;;;;14.07;89.81;101030.50;4980419;28;20041;-66
2022/10/13 09:19:21;;;;;;;9.32;4.10;;;;;;;14.13;89.92;101029.03;4971330;28;20039;-66
2022/10/13 09:21:48;;;;;;;8.80;3.80;;;;;;;14.31;89.50;101030.81;4979650;28;20497;-66
2022/10/13 09:24:16;;;;;;;14.98;4.60;;;;;;;14.30;89.08;101023.06;4983970;28;20065;-65
2022/10/13 09:26:44;;;;;;;9.18;3.40;;;;;;;14.46;88.20;101012.75;4984183;28;20112;-66
2022/10/13 09:29:14;;;;;;;9.30;4.50;;;;;;;14.48;88.77;101012.41;4976793;28;20034;-66
2022/10/13 09:31:40;;;;;;;8.27;3.60;;;;;;;14.35;89.05;101015.38;4983006;28;20141;-66
2022/10/13 09:34:19;;;;;;;9.68;4.28;;;;;;;14.20;89.67;101024.47;4979510;28;20030;-66
2022/10/13 09:37:02;;;;;;;9.52;4.07;;;;;;;14.25;90.66;101004.38;4974766;28;20046;-65
2022/10/13 09:39:29;;;;;;;10.38;3.97;;;;;;;14.51;90.18;101004.31;4971201;28;20042;-64
2022/10/13 09:42:26;;;;;;;8.27;3.88;;;;;;;14.59;89.77;101005.94;4975183;28;20089;-63
2022/10/13 09:45:11;;;;;;;12.20;3.78;;;;;;;15.01;88.72;101019.09;4976812;28;20133;-63
2022/10/13 09:47:37;;;;;;;9.10;4.28;;;;;;;15.11;88.20;101027.31;4975848;28;20039;-63
2022/10/13 09:50:22;;;;;;;13.18;4.53;;;;;;;15.25;87.71;101013.09;4978224;28;20037;-63
2022/10/13 09:52:48;;;;;;;12.57;4.25;;;;;;;15.24;87.70;101006.09;4979195;28;20045;-63
2022/10/13 09:55:34;;;;;;;7.38;3.72;;;;;;;15.47;87.11;101001.22;4974988;28;20038;-63
2022/10/13 09:58:04;;;;;;;9.10;4.05;;;;;;;15.53;86.08;101007.84;4983858;28;20030;-63
2022/10/13 10:00:30;;;;;;;7.80;3.85;;;;;;;15.65;86.27;101010.25;4981163;28;20045;-63
2022/10/13 10:03:14;;;;;;;6.90;3.25;;;;;;;15.80;85.66;101006.44;4985064;28;20038;-64
2022/10/13 10:05:51;;;;;;;8.63;4.40;;;;;;;15.86;85.00;101004.94;4973294;28;20035;-63
2022/10/13 10:08:40;;;;;;;10.40;4.13;;;;;;;15.90;85.11;101008.44;4977328;28;20649;-64
2022/10/13 10:11:16;;;;;;;9.15;3.42;;;;;;;16.29;84.58;101011.28;4969301;28;20070;-64
2022/10/13 10:13:41;;;;;;;10.95;3.72;;;;;;;16.55;84.47;101007.50;4972118;28;20041;-63
2022/10/13 10:16:13;;;;;;;9.48;3.65;;;;;;;16.79;83.11;101007.53;4983886;28;20034;-66
2022/10/13 10:18:52;;;;;;;6.20;3.30;;;;;;;16.85;81.69;101010.63;4973550;28;20030;-64
2022/10/13 10:21:45;;;;;;;9.80;4.25;;;;;;;16.91;81.31;101009.09;5011490;23;20052;-70
2022/10/13 10:24:25;;;;;;;9.35;3.45;;;;;;;16.98;81.04;101004.41;5009232;28;20037;-69
2022/10/13 10:27:00;;;;;;;7.50;3.47;;;;;;;16.79;81.87;101009.47;5012292;28;20454;-70
2022/10/13 10:29:57;;;;;;;9.77;3.27;;;;;;;16.78;81.97;100997.03;5010245;28;20029;-69
2022/10/13 10:32:39;;;;;;;7.63;3.47;;;;;;;16.85;81.71;100997.81;4983990;28;20050;-70
2022/10/13 10:35:38;;;;;;;6.85;2.90;;;;;;;16.92;81.58;100991.59;4983881;28;20026;-70
2022/10/13 10:38:25;;;;;;;11.13;3.38;;;;;;;16.48;82.57;100991.13;4971906;28;20233;-69
2022/10/13 10:41:24;;;;;;;5.85;2.67;;;;;;;16.67;82.81;100988.06;4986218;28;20058;-70
2022/10/13 10:44:03;;;;;;;8.07;3.50;;;;;;;16.66;82.48;100976.44;4990018;28;20053;-70
2022/10/13 10:46:35;;;;;;;7.35;3.13;;;;;;;16.76;82.79;100985.78;4990536;28;20038;-69
2022/10/13 10:49:23;;;;;;;7.00;3.78;;;;;;;16.86;82.73;100977.59;4988544;28;20160;-70
2022/10/13 10:51:49;;;;;;;10.25;3.70;;;;;;;16.89;81.66;100974.13;4984086;28;20058;-70
2022/10/13 10:54:42;;;;;;;5.72;3.28;;;;;;;16.93;81.55;100974.09;4983601;28;20450;-71
2022/10/13 10:57:19;;;;;;;9.38;3.25;;;;;;;17.01;81.44;100970.22;4979508;28;20062;-70
2022/10/13 10:59:58;;;;;;;6.30;2.78;;;;;;;17.03;80.97;100967.88;4987774;28;20073;-71
2022/10/13 11:02:35;;;;;;;7.85;2.90;;;;;;;16.92;81.78;100970.59;5003174;28;20454;-70
2022/10/13 11:05:01;;;;;;;6.43;3.15;;;;;;;16.99;81.14;100964.38;4986600;28;20038;-70
2022/10/13 11:07:26;;;;;;;7.63;3.35;;;;;;;16.89;81.41;100957.78;4991305;28;20038;-70
2022/10/13 11:09:52;;;;;;;6.63;2.97;;;;;;;17.02;81.09;100955.44;4983741;28;20053;-70
2022/10/13 11:12:18;;;;;;;5.72;3.10;;;;;;;17.20;80.46;100948.03;4988770;28;20554;-69
2022/10/13 11:14:53;;;;;;;9.27;3.05;;;;;;;17.20;80.51;100937.13;4990010;28;20106;-70
2022/10/13 11:17:28;;;;;;;7.38;2.70;;;;;;;17.23;80.44;100935.59;4988591;28;20030;-69
2022/10/13 11:19:54;;;;;;;7.70;3.00;;;;;;;17.22;80.86;100929.34;4991984;28;20042;-70
2022/10/13 11:22:22;;;;;;;8.75;3.85;;;;;;;17.17;80.46;100922.34;4990351;28;20034;-70
2022/10/13 11:25:26;;;;;;;6.40;2.97;;;;;;;17.30;80.19;100922.72;4991100;28;20096;-69
2022/10/13 11:27:52;;;;;;;5.75;2.63;;;;;;;17.31;79.61;100913.38;4963609;28;20056;-70
2022/10/13 11:30:54;;;;;;;10.93;3.00;;;;;;;16.82;81.39;100913.47;4993870;28;20038;-70
2022/10/13 11:33:38;;;;;;;6.70;3.00;;;;;;;16.86;81.00;100909.56;4922488;29;20099;-70
2022/10/13 11:36:34;;;;;;;5.82;2.88;;;;;;;16.82;81.60;100897.91;4980026;28;20041;-69
2022/10/13 11:39:08;;;;;;;8.95;3.05;;;;;;;17.00;81.48;100906.06;4991584;28;20479;-70
2022/10/13 11:42:21;;;;;;;7.07;3.55;;;;;;;17.19;81.60;100896.69;4986147;28;20092;-70